Terminal Aerodrome Forecast
Issued by NWS Corpus Christi, TX

Home | Current Version | Previous Version | Text Only | Print | Product List | Glossary On
Versions: 1 2 3 4 5 6 7 8 9 10 11 12 13
000
FTUS44 KCRP 241125
TAFVCT
TAF
KVCT 241125Z 2412/2512 18005KT P6SM FEW025 BKN150
      TEMPO 2412/2413 6SM BR OVC025
     FM241500 20013G18KT P6SM FEW030 BKN250
     FM241900 17018G26KT P6SM FEW050 SCT200
     FM250200 16012KT P6SM SKC
     FM251100 15004KT P6SM BKN050=

USA.gov is the U.S. government's official web portal to all federal, state and local government web resources and services.